Perrine, Florida
Current Conditions -  °F | °C
As of 6:53 AM on Monday 26 Jan 2015 (Local Time) from KTMB Reporting Station
Few Clouds Few Clouds  
Wind Chill: 57°   Ceiling: Unl
Heat Index: 57°   Visibility: 10mi
Dew Point: 52°   Wind: 9mph
Humidity: 83%   Direction: 190°S
Pressure: 29.95"   Gusts: NA
Location:  25.61°N, 80.35°W
Report Text: KTMB 261153Z AUTO 19008KT 10SM FEW055 14/11 A2995 RMK AO2 SLP142 T01390111 10139 20106 56008
Loading
Personal Weather Stations






























Interactive Weather Map New forecast layout! Learn more

10-Day Weather Forecast

Advertisements
Track Severe Weather on mobile